sensor_id;sensor_type;location;lat;lon;timestamp;temperature;humidity
14014;DHT22;49110;52.584;13.408;2024-01-27T00:00:11;7.60;99.90
14014;DHT22;49110;52.584;13.408;2024-01-27T00:01:12;7.60;99.90
14014;DHT22;49110;52.584;13.408;2024-01-27T00:02:12;7.50;99.90
14014;DHT22;49110;52.584;13.408;2024-01-27T00:03:13;7.50;99.90
14014;DHT22;49110;52.584;13.408;2024-01-27T00:04:13;7.50;99.90
14014;DHT22;49110;52.584;13.408;2024-01-27T00:05:14;7.50;99.90
14014;DHT22;49110;52.584;13.408;2024-01-27T00:06:14;7.50;99.90
14014;DHT22;49110;52.584;13.408;2024-01-27T00:07:15;7.40;99.90
14014;DHT22;49110;52.584;13.408;2024-01-27T00:08:15;7.50;99.90
14014;DHT22;49110;52.584;13.408;2024-01-27T00:09:16;7.50;99.90
14014;DHT22;49110;52.584;13.408;2024-01-27T00:10:16;7.50;99.90
14014;DHT22;49110;52.584;13.408;2024-01-27T00:11:17;7.40;99.90
14014;DHT22;49110;52.584;13.408;2024-01-27T00:12:17;7.40;99.90
14014;DHT22;49110;52.584;13.408;2024-01-27T00:13:17;7.40;99.90
14014;DHT22;49110;52.584;13.408;2024-01-27T00:14:18;7.30;99.90
14014;DHT22;49110;52.584;13.408;2024-01-27T00:15:18;7.30;99.90
14014;DHT22;49110;52.584;13.408;2024-01-27T00:16:19;7.30;99.90
14014;DHT22;49110;52.584;13.408;2024-01-27T00:17:19;7.30;99.90
14014;DHT22;49110;52.584;13.408;2024-01-27T00:18:24;7.30;99.90
14014;DHT22;49110;52.584;13.408;2024-01-27T00:19:24;7.30;99.90
14014;DHT22;49110;52.584;13.408;2024-01-27T00:20:25;7.20;99.90
14014;DHT22;49110;52.584;13.408;2024-01-27T00:21:25;7.20;99.90
14014;DHT22;49110;52.584;13.408;2024-01-27T00:22:26;7.20;99.90
14014;DHT22;49110;52.584;13.408;2024-01-27T00:23:26;7.20;99.90
14014;DHT22;49110;52.584;13.408;2024-01-27T00:24:27;7.20;99.90
14014;DHT22;49110;52.584;13.408;2024-01-27T00:25:27;7.20;99.90
14014;DHT22;49110;52.584;13.408;2024-01-27T00:26:28;7.20;99.90
14014;DHT22;49110;52.584;13.408;2024-01-27T00:27:28;7.20;99.90
14014;DHT22;49110;52.584;13.408;2024-01-27T00:28:29;7.30;99.90
14014;DHT22;49110;52.584;13.408;2024-01-27T00:29:32;7.20;99.90
14014;DHT22;49110;52.584;13.408;2024-01-27T00:30:32;7.20;99.90
14014;DHT22;49110;52.584;13.408;2024-01-27T00:31:33;7.30;99.90
14014;DHT22;49110;52.584;13.408;2024-01-27T00:32:33;7.30;99.90
14014;DHT22;49110;52.584;13.408;2024-01-27T00:33:34;7.30;99.90
14014;DHT22;49110;52.584;13.408;2024-01-27T00:34:36;7.40;99.90
14014;DHT22;49110;52.584;13.408;2024-01-27T00:35:36;7.40;99.90
14014;DHT22;49110;52.584;13.408;2024-01-27T00:36:37;7.50;99.90
14014;DHT22;49110;52.584;13.408;2024-01-27T00:37:37;7.40;99.90
14014;DHT22;49110;52.584;13.408;2024-01-27T00:38:38;7.50;99.90
14014;DHT22;49110;52.584;13.408;2024-01-27T00:39:39;7.40;99.90
14014;DHT22;49110;52.584;13.408;2024-01-27T00:40:40;7.40;99.90
14014;DHT22;49110;52.584;13.408;2024-01-27T00:41:40;7.40;99.90
14014;DHT22;49110;52.584;13.408;2024-01-27T00:42:41;7.40;99.90
14014;DHT22;49110;52.584;13.408;2024-01-27T00:43:41;7.40;99.90
14014;DHT22;49110;52.584;13.408;2024-01-27T00:44:42;7.50;99.90
14014;DHT22;49110;52.584;13.408;2024-01-27T00:45:42;7.50;99.90
14014;DHT22;49110;52.584;13.408;2024-01-27T00:46:43;7.40;99.90
14014;DHT22;49110;52.584;13.408;2024-01-27T00:47:43;7.40;99.90
14014;DHT22;49110;52.584;13.408;2024-01-27T00:48:44;7.40;99.90
14014;DHT22;49110;52.584;13.408;2024-01-27T00:49:45;7.30;99.90
14014;DHT22;49110;52.584;13.408;2024-01-27T00:50:45;7.30;99.90
14014;DHT22;49110;52.584;13.408;2024-01-27T00:51:46;7.30;99.90
14014;DHT22;49110;52.584;13.408;2024-01-27T00:52:46;7.30;99.90
14014;DHT22;49110;52.584;13.408;2024-01-27T00:53:47;7.30;99.90
14014;DHT22;49110;52.584;13.408;2024-01-27T00:54:47;7.30;99.90
14014;DHT22;49110;52.584;13.408;2024-01-27T00:55:47;7.30;99.90
14014;DHT22;49110;52.584;13.408;2024-01-27T00:56:48;7.30;99.90
14014;DHT22;49110;52.584;13.408;2024-01-27T00:57:48;7.30;99.90
14014;DHT22;49110;52.584;13.408;2024-01-27T00:58:49;7.40;99.90
14014;DHT22;49110;52.584;13.408;2024-01-27T00:59:49;7.40;99.90
14014;DHT22;49110;52.584;13.408;2024-01-27T01:00:50;7.40;99.90
14014;DHT22;49110;52.584;13.408;2024-01-27T01:01:51;7.40;99.90
14014;DHT22;49110;52.584;13.408;2024-01-27T01:02:51;7.40;99.90
14014;DHT22;49110;52.584;13.408;2024-01-27T01:03:52;7.40;99.90
14014;DHT22;49110;52.584;13.408;2024-01-27T01:04:52;7.30;99.90
14014;DHT22;49110;52.584;13.408;2024-01-27T01:05:53;7.40;99.90
14014;DHT22;49110;52.584;13.408;2024-01-27T01:06:53;7.40;99.90
14014;DHT22;49110;52.584;13.408;2024-01-27T01:07:54;7.30;99.90
14014;DHT22;49110;52.584;13.408;2024-01-27T01:08:54;7.30;99.90
14014;DHT22;49110;52.584;13.408;2024-01-27T01:09:55;7.40;99.90
14014;DHT22;49110;52.584;13.408;2024-01-27T01:10:55;7.40;99.90
14014;DHT22;49110;52.584;13.408;2024-01-27T01:11:56;7.40;99.90
14014;DHT22;49110;52.584;13.408;2024-01-27T01:12:56;7.40;99.90
14014;DHT22;49110;52.584;13.408;2024-01-27T01:13:57;7.40;99.90
14014;DHT22;49110;52.584;13.408;2024-01-27T01:15:00;7.40;99.90
14014;DHT22;49110;52.584;13.408;2024-01-27T01:16:01;7.40;99.90
14014;DHT22;49110;52.584;13.408;2024-01-27T01:17:02;7.40;99.90
14014;DHT22;49110;52.584;13.408;2024-01-27T01:18:03;7.40;99.90
14014;DHT22;49110;52.584;13.408;2024-01-27T01:19:04;7.30;99.90
14014;DHT22;49110;52.584;13.408;2024-01-27T01:20:05;7.30;99.90
14014;DHT22;49110;52.584;13.408;2024-01-27T01:21:06;7.30;99.90
14014;DHT22;49110;52.584;13.408;2024-01-27T01:22:07;7.30;99.90
14014;DHT22;49110;52.584;13.408;2024-01-27T01:23:07;7.30;99.90
14014;DHT22;49110;52.584;13.408;2024-01-27T01:24:08;7.30;99.90
14014;DHT22;49110;52.584;13.408;2024-01-27T01:25:09;7.30;99.90
14014;DHT22;49110;52.584;13.408;2024-01-27T01:26:09;7.30;99.90
14014;DHT22;49110;52.584;13.408;2024-01-27T01:27:10;7.20;99.90
14014;DHT22;49110;52.584;13.408;2024-01-27T01:28:10;7.30;99.90
14014;DHT22;49110;52.584;13.408;2024-01-27T01:29:11;7.20;99.90
14014;DHT22;49110;52.584;13.408;2024-01-27T01:30:12;7.20;99.90
14014;DHT22;49110;52.584;13.408;2024-01-27T01:31:12;7.20;99.90
14014;DHT22;49110;52.584;13.408;2024-01-27T01:32:13;7.20;99.90
14014;DHT22;49110;52.584;13.408;2024-01-27T01:33:13;7.20;99.90
14014;DHT22;49110;52.584;13.408;2024-01-27T01:34:14;7.20;99.90
14014;DHT22;49110;52.584;13.408;2024-01-27T01:35:15;7.20;99.90
14014;DHT22;49110;52.584;13.408;2024-01-27T01:36:15;7.20;99.90
14014;DHT22;49110;52.584;13.408;2024-01-27T01:37:16;7.20;99.90
14014;DHT22;49110;52.584;13.408;2024-01-27T01:38:16;7.30;99.90
14014;DHT22;49110;52.584;13.408;2024-01-27T01:39:17;7.30;99.90
14014;DHT22;49110;52.584;13.408;2024-01-27T01:40:17;7.20;99.90
14014;DHT22;49110;52.584;13.408;2024-01-27T01:41:18;7.30;99.90
14014;DHT22;49110;52.584;13.408;2024-01-27T01:42:18;7.10;99.90
14014;DHT22;49110;52.584;13.408;2024-01-27T01:43:20;7.10;99.90
14014;DHT22;49110;52.584;13.408;2024-01-27T01:44:21;7.10;99.90
14014;DHT22;49110;52.584;13.408;2024-01-27T01:45:21;7.10;99.90
14014;DHT22;49110;52.584;13.408;2024-01-27T01:46:23;7.10;99.90
14014;DHT22;49110;52.584;13.408;2024-01-27T01:47:24;7.20;99.90
14014;DHT22;49110;52.584;13.408;2024-01-27T01:48:25;7.20;99.90
14014;DHT22;49110;52.584;13.408;2024-01-27T01:49:26;7.20;99.90
14014;DHT22;49110;52.584;13.408;2024-01-27T01:50:27;7.20;99.90
14014;DHT22;49110;52.584;13.408;2024-01-27T01:51:27;7.30;99.90
14014;DHT22;49110;52.584;13.408;2024-01-27T01:52:28;7.20;99.90
14014;DHT22;49110;52.584;13.408;2024-01-27T01:53:28;7.10;99.90
14014;DHT22;49110;52.584;13.408;2024-01-27T01:54:29;7.20;99.90
14014;DHT22;49110;52.584;13.408;2024-01-27T01:55:31;7.10;99.90
14014;DHT22;49110;52.584;13.408;2024-01-27T01:56:32;7.10;99.90
14014;DHT22;49110;52.584;13.408;2024-01-27T01:57:33;7.10;99.90
14014;DHT22;49110;52.584;13.408;2024-01-27T01:58:34;7.00;99.90
14014;DHT22;49110;52.584;13.408;2024-01-27T01:59:34;7.00;99.90
14014;DHT22;49110;52.584;13.408;2024-01-27T02:00:40;7.00;99.90
14014;DHT22;49110;52.584;13.408;2024-01-27T02:01:42;7.00;99.90
14014;DHT22;49110;52.584;13.408;2024-01-27T02:02:45;7.00;99.90
14014;DHT22;49110;52.584;13.408;2024-01-27T02:03:55;7.10;99.90
14014;DHT22;49110;52.584;13.408;2024-01-27T02:04:55;7.10;99.90
14014;DHT22;49110;52.584;13.408;2024-01-27T02:05:56;7.10;99.90
14014;DHT22;49110;52.584;13.408;2024-01-27T02:06:57;7.10;99.90
14014;DHT22;49110;52.584;13.408;2024-01-27T02:07:57;7.20;99.90
14014;DHT22;49110;52.584;13.408;2024-01-27T02:09:00;7.20;99.90
14014;DHT22;49110;52.584;13.408;2024-01-27T02:10:01;7.20;99.90
14014;DHT22;49110;52.584;13.408;2024-01-27T02:11:02;7.20;99.90
14014;DHT22;49110;52.584;13.408;2024-01-27T02:12:04;7.20;99.90
14014;DHT22;49110;52.584;13.408;2024-01-27T02:14:19;7.30;99.90
14014;DHT22;49110;52.584;13.408;2024-01-27T02:15:19;7.30;99.90
14014;DHT22;49110;52.584;13.408;2024-01-27T02:16:22;7.30;99.90
14014;DHT22;49110;52.584;13.408;2024-01-27T02:17:22;7.20;99.90
14014;DHT22;49110;52.584;13.408;2024-01-27T02:18:23;7.20;99.90
14014;DHT22;49110;52.584;13.408;2024-01-27T02:19:24;7.30;99.90
14014;DHT22;49110;52.584;13.408;2024-01-27T02:20:24;7.20;99.90
14014;DHT22;49110;52.584;13.408;2024-01-27T02:21:25;7.20;99.90
14014;DHT22;49110;52.584;13.408;2024-01-27T02:22:25;7.20;99.90
14014;DHT22;49110;52.584;13.408;2024-01-27T02:23:26;7.30;99.90
14014;DHT22;49110;52.584;13.408;2024-01-27T02:24:26;7.30;99.90
14014;DHT22;49110;52.584;13.408;2024-01-27T02:25:28;7.40;99.90
14014;DHT22;49110;52.584;13.408;2024-01-27T02:26:29;7.40;99.90
14014;DHT22;49110;52.584;13.408;2024-01-27T02:27:29;7.30;99.90
14014;DHT22;49110;52.584;13.408;2024-01-27T02:28:30;7.30;99.90
14014;DHT22;49110;52.584;13.408;2024-01-27T02:29:32;7.40;99.90
14014;DHT22;49110;52.584;13.408;2024-01-27T02:30:32;7.30;99.90
14014;DHT22;49110;52.584;13.408;2024-01-27T02:31:33;7.30;99.90
14014;DHT22;49110;52.584;13.408;2024-01-27T02:32:34;7.30;99.90
14014;DHT22;49110;52.584;13.408;2024-01-27T02:33:34;7.30;99.90
14014;DHT22;49110;52.584;13.408;2024-01-27T02:34:34;7.30;99.90
14014;DHT22;49110;52.584;13.408;2024-01-27T02:35:35;7.30;99.90
14014;DHT22;49110;52.584;13.408;2024-01-27T02:36:36;7.30;99.90
14014;DHT22;49110;52.584;13.408;2024-01-27T02:37:36;7.30;99.90
14014;DHT22;49110;52.584;13.408;2024-01-27T02:38:36;7.30;99.90
14014;DHT22;49110;52.584;13.408;2024-01-27T02:39:37;7.30;99.90
14014;DHT22;49110;52.584;13.408;2024-01-27T02:40:37;7.40;99.90
14014;DHT22;49110;52.584;13.408;2024-01-27T02:41:39;7.30;99.90
14014;DHT22;49110;52.584;13.408;2024-01-27T02:42:40;7.30;99.90
14014;DHT22;49110;52.584;13.408;2024-01-27T02:43:44;7.30;99.90
14014;DHT22;49110;52.584;13.408;2024-01-27T02:44:44;7.30;99.90
14014;DHT22;49110;52.584;13.408;2024-01-27T02:45:45;7.40;99.90
14014;DHT22;49110;52.584;13.408;2024-01-27T02:46:45;7.40;99.90
14014;DHT22;49110;52.584;13.408;2024-01-27T02:47:46;7.40;99.90
14014;DHT22;49110;52.584;13.408;2024-01-27T02:48:46;7.40;99.90
14014;DHT22;49110;52.584;13.408;2024-01-27T02:49:47;7.40;99.90
14014;DHT22;49110;52.584;13.408;2024-01-27T02:50:47;7.40;99.90
14014;DHT22;49110;52.584;13.408;2024-01-27T02:51:47;7.40;99.90
14014;DHT22;49110;52.584;13.408;2024-01-27T02:52:48;7.40;99.90
14014;DHT22;49110;52.584;13.408;2024-01-27T02:53:48;7.30;99.90
14014;DHT22;49110;52.584;13.408;2024-01-27T02:54:49;7.30;99.90
14014;DHT22;49110;52.584;13.408;2024-01-27T02:55:49;7.30;99.90
14014;DHT22;49110;52.584;13.408;2024-01-27T02:56:50;7.30;99.90
14014;DHT22;49110;52.584;13.408;2024-01-27T02:57:51;7.30;99.90
14014;DHT22;49110;52.584;13.408;2024-01-27T02:58:51;7.30;99.90
14014;DHT22;49110;52.584;13.408;2024-01-27T02:59:52;7.40;99.90
14014;DHT22;49110;52.584;13.408;2024-01-27T03:00:52;7.30;99.90
14014;DHT22;49110;52.584;13.408;2024-01-27T03:01:53;7.30;99.90
14014;DHT22;49110;52.584;13.408;2024-01-27T03:02:53;7.30;99.90
14014;DHT22;49110;52.584;13.408;2024-01-27T03:03:54;7.30;99.90
14014;DHT22;49110;52.584;13.408;2024-01-27T03:04:55;7.20;99.90
14014;DHT22;49110;52.584;13.408;2024-01-27T03:05:55;7.30;99.90
14014;DHT22;49110;52.584;13.408;2024-01-27T03:06:56;7.20;99.90
14014;DHT22;49110;52.584;13.408;2024-01-27T03:07:57;7.30;99.90
14014;DHT22;49110;52.584;13.408;2024-01-27T03:08:57;7.30;99.90
14014;DHT22;49110;52.584;13.408;2024-01-27T03:09:58;7.30;99.90
14014;DHT22;49110;52.584;13.408;2024-01-27T03:10:58;7.30;99.90
14014;DHT22;49110;52.584;13.408;2024-01-27T03:11:59;7.30;99.90
14014;DHT22;49110;52.584;13.408;2024-01-27T03:12:59;7.30;99.90
14014;DHT22;49110;52.584;13.408;2024-01-27T03:14:00;7.30;99.90
14014;DHT22;49110;52.584;13.408;2024-01-27T03:15:00;7.20;99.90
14014;DHT22;49110;52.584;13.408;2024-01-27T03:16:01;7.20;99.90
14014;DHT22;49110;52.584;13.408;2024-01-27T03:17:01;7.20;99.90
14014;DHT22;49110;52.584;13.408;2024-01-27T03:18:02;7.30;99.90
14014;DHT22;49110;52.584;13.408;2024-01-27T03:19:02;7.40;99.90
14014;DHT22;49110;52.584;13.408;2024-01-27T03:20:03;7.40;99.90
14014;DHT22;49110;52.584;13.408;2024-01-27T03:21:05;7.40;99.90
14014;DHT22;49110;52.584;13.408;2024-01-27T03:22:06;7.40;99.90
14014;DHT22;49110;52.584;13.408;2024-01-27T03:23:06;7.40;99.90
14014;DHT22;49110;52.584;13.408;2024-01-27T03:24:08;7.40;99.90
14014;DHT22;49110;52.584;13.408;2024-01-27T03:25:10;7.40;99.90
14014;DHT22;49110;52.584;13.408;2024-01-27T03:26:14;7.30;99.90
14014;DHT22;49110;52.584;13.408;2024-01-27T03:27:14;7.40;99.90
14014;DHT22;49110;52.584;13.408;2024-01-27T03:28:14;7.40;99.90
14014;DHT22;49110;52.584;13.408;2024-01-27T03:29:16;7.30;99.90
14014;DHT22;49110;52.584;13.408;2024-01-27T03:30:16;7.40;99.90
14014;DHT22;49110;52.584;13.408;2024-01-27T03:31:17;7.40;99.90
14014;DHT22;49110;52.584;13.408;2024-01-27T03:32:17;7.30;99.90
14014;DHT22;49110;52.584;13.408;2024-01-27T03:33:18;7.30;99.90
14014;DHT22;49110;52.584;13.408;2024-01-27T03:34:18;7.40;99.90
14014;DHT22;49110;52.584;13.408;2024-01-27T03:35:20;7.40;99.90
14014;DHT22;49110;52.584;13.408;2024-01-27T03:36:21;7.30;99.90
14014;DHT22;49110;52.584;13.408;2024-01-27T03:37:22;7.40;99.90
14014;DHT22;49110;52.584;13.408;2024-01-27T03:38:23;7.30;99.90
14014;DHT22;49110;52.584;13.408;2024-01-27T03:39:23;7.30;99.90
14014;DHT22;49110;52.584;13.408;2024-01-27T03:40:23;7.30;99.90
14014;DHT22;49110;52.584;13.408;2024-01-27T03:41:24;7.40;99.90
14014;DHT22;49110;52.584;13.408;2024-01-27T03:42:25;7.30;99.90
14014;DHT22;49110;52.584;13.408;2024-01-27T03:43:25;7.30;99.90
14014;DHT22;49110;52.584;13.408;2024-01-27T03:44:26;7.30;99.90
14014;DHT22;49110;52.584;13.408;2024-01-27T03:45:26;7.20;99.90
14014;DHT22;49110;52.584;13.408;2024-01-27T03:46:27;7.10;99.90
14014;DHT22;49110;52.584;13.408;2024-01-27T03:47:27;7.10;99.90
14014;DHT22;49110;52.584;13.408;2024-01-27T03:48:28;7.10;99.90
14014;DHT22;49110;52.584;13.408;2024-01-27T03:49:28;7.00;99.90
14014;DHT22;49110;52.584;13.408;2024-01-27T03:50:29;6.90;99.90
14014;DHT22;49110;52.584;13.408;2024-01-27T03:51:29;6.90;99.90
14014;DHT22;49110;52.584;13.408;2024-01-27T03:52:29;6.90;99.90
14014;DHT22;49110;52.584;13.408;2024-01-27T03:53:30;6.90;99.90
14014;DHT22;49110;52.584;13.408;2024-01-27T03:54:30;6.90;99.90
14014;DHT22;49110;52.584;13.408;2024-01-27T03:55:31;6.80;99.90
14014;DHT22;49110;52.584;13.408;2024-01-27T03:56:32;6.80;99.90
14014;DHT22;49110;52.584;13.408;2024-01-27T03:57:32;6.70;99.90
14014;DHT22;49110;52.584;13.408;2024-01-27T03:58:33;6.60;99.90
14014;DHT22;49110;52.584;13.408;2024-01-27T03:59:34;6.60;99.90
14014;DHT22;49110;52.584;13.408;2024-01-27T04:00:34;6.50;99.90
14014;DHT22;49110;52.584;13.408;2024-01-27T04:01:35;6.50;99.90
14014;DHT22;49110;52.584;13.408;2024-01-27T04:02:35;6.60;99.90
14014;DHT22;49110;52.584;13.408;2024-01-27T04:03:36;6.50;99.90
14014;DHT22;49110;52.584;13.408;2024-01-27T04:04:36;6.50;99.90
14014;DHT22;49110;52.584;13.408;2024-01-27T04:05:37;6.50;99.90
14014;DHT22;49110;52.584;13.408;2024-01-27T04:06:39;6.60;99.90
14014;DHT22;49110;52.584;13.408;2024-01-27T04:07:40;6.50;99.90
14014;DHT22;49110;52.584;13.408;2024-01-27T04:08:40;6.50;99.90
14014;DHT22;49110;52.584;13.408;2024-01-27T04:09:46;6.50;99.90
14014;DHT22;49110;52.584;13.408;2024-01-27T04:10:46;6.50;99.90
14014;DHT22;49110;52.584;13.408;2024-01-27T04:11:47;6.50;99.90
14014;DHT22;49110;52.584;13.408;2024-01-27T04:12:48;6.50;99.90
14014;DHT22;49110;52.584;13.408;2024-01-27T04:13:50;6.50;99.90
14014;DHT22;49110;52.584;13.408;2024-01-27T04:14:50;6.50;99.90
14014;DHT22;49110;52.584;13.408;2024-01-27T04:15:51;6.50;99.90
14014;DHT22;49110;52.584;13.408;2024-01-27T04:16:54;6.50;99.90
14014;DHT22;49110;52.584;13.408;2024-01-27T04:17:55;6.40;99.90
14014;DHT22;49110;52.584;13.408;2024-01-27T04:18:55;6.40;99.90
14014;DHT22;49110;52.584;13.408;2024-01-27T04:19:56;6.30;99.90
14014;DHT22;49110;52.584;13.408;2024-01-27T04:20:56;6.30;99.90
14014;DHT22;49110;52.584;13.408;2024-01-27T04:21:57;6.30;99.90
14014;DHT22;49110;52.584;13.408;2024-01-27T04:22:57;6.30;99.90
14014;DHT22;49110;52.584;13.408;2024-01-27T04:23:58;6.30;99.90
14014;DHT22;49110;52.584;13.408;2024-01-27T04:24:58;6.30;99.90
14014;DHT22;49110;52.584;13.408;2024-01-27T04:25:59;6.30;99.90
14014;DHT22;49110;52.584;13.408;2024-01-27T04:27:00;6.30;99.90
14014;DHT22;49110;52.584;13.408;2024-01-27T04:28:02;6.30;99.90
14014;DHT22;49110;52.584;13.408;2024-01-27T04:29:03;6.40;99.90
14014;DHT22;49110;52.584;13.408;2024-01-27T04:30:05;6.50;99.90
14014;DHT22;49110;52.584;13.408;2024-01-27T04:31:06;6.50;99.90
14014;DHT22;49110;52.584;13.408;2024-01-27T04:32:07;6.50;99.90
14014;DHT22;49110;52.584;13.408;2024-01-27T04:33:07;6.60;99.90
14014;DHT22;49110;52.584;13.408;2024-01-27T04:34:08;6.60;99.90
14014;DHT22;49110;52.584;13.408;2024-01-27T04:35:09;6.60;99.90
14014;DHT22;49110;52.584;13.408;2024-01-27T04:36:10;6.60;99.90
14014;DHT22;49110;52.584;13.408;2024-01-27T04:37:10;6.60;99.90
14014;DHT22;49110;52.584;13.408;2024-01-27T04:38:11;6.60;99.90
14014;DHT22;49110;52.584;13.408;2024-01-27T04:39:12;6.60;99.90
14014;DHT22;49110;52.584;13.408;2024-01-27T04:40:14;6.60;99.90
14014;DHT22;49110;52.584;13.408;2024-01-27T04:41:14;6.60;99.90
14014;DHT22;49110;52.584;13.408;2024-01-27T04:42:15;6.60;99.90
14014;DHT22;49110;52.584;13.408;2024-01-27T04:43:17;6.60;99.90
14014;DHT22;49110;52.584;13.408;2024-01-27T04:44:18;6.60;99.90
14014;DHT22;49110;52.584;13.408;2024-01-27T04:45:20;6.70;99.90
14014;DHT22;49110;52.584;13.408;2024-01-27T04:46:21;6.70;99.90
14014;DHT22;49110;52.584;13.408;2024-01-27T04:47:21;6.70;99.90
14014;DHT22;49110;52.584;13.408;2024-01-27T04:48:22;6.70;99.90
14014;DHT22;49110;52.584;13.408;2024-01-27T04:49:23;6.80;99.90
14014;DHT22;49110;52.584;13.408;2024-01-27T04:50:23;6.70;99.90
14014;DHT22;49110;52.584;13.408;2024-01-27T04:51:24;6.80;99.90
14014;DHT22;49110;52.584;13.408;2024-01-27T04:52:24;6.80;99.90
14014;DHT22;49110;52.584;13.408;2024-01-27T04:53:26;6.90;99.90
14014;DHT22;49110;52.584;13.408;2024-01-27T04:54:26;6.90;99.90
14014;DHT22;49110;52.584;13.408;2024-01-27T04:55:27;6.80;99.90
14014;DHT22;49110;52.584;13.408;2024-01-27T04:56:28;6.80;99.90
14014;DHT22;49110;52.584;13.408;2024-01-27T04:57:28;6.80;99.90
14014;DHT22;49110;52.584;13.408;2024-01-27T04:58:29;6.80;99.90
14014;DHT22;49110;52.584;13.408;2024-01-27T04:59:29;6.80;99.90
14014;DHT22;49110;52.584;13.408;2024-01-27T05:00:30;6.70;99.90
14014;DHT22;49110;52.584;13.408;2024-01-27T05:01:31;6.80;99.90
14014;DHT22;49110;52.584;13.408;2024-01-27T05:02:32;6.80;99.90
14014;DHT22;49110;52.584;13.408;2024-01-27T05:03:34;6.80;99.90
14014;DHT22;49110;52.584;13.408;2024-01-27T05:04:34;6.80;99.90
14014;DHT22;49110;52.584;13.408;2024-01-27T05:05:34;6.80;99.90
14014;DHT22;49110;52.584;13.408;2024-01-27T05:06:35;6.80;99.90
14014;DHT22;49110;52.584;13.408;2024-01-27T05:07:35;6.80;99.90
14014;DHT22;49110;52.584;13.408;2024-01-27T05:08:36;6.70;99.90
14014;DHT22;49110;52.584;13.408;2024-01-27T05:09:37;6.70;99.90
14014;DHT22;49110;52.584;13.408;2024-01-27T05:10:38;6.70;99.90
14014;DHT22;49110;52.584;13.408;2024-01-27T05:11:38;6.70;99.90
14014;DHT22;49110;52.584;13.408;2024-01-27T05:12:39;6.70;99.90
14014;DHT22;49110;52.584;13.408;2024-01-27T05:13:40;6.70;99.90
14014;DHT22;49110;52.584;13.408;2024-01-27T05:14:44;6.60;99.90
14014;DHT22;49110;52.584;13.408;2024-01-27T05:15:45;6.60;99.90
14014;DHT22;49110;52.584;13.408;2024-01-27T05:16:46;6.60;99.90
14014;DHT22;49110;52.584;13.408;2024-01-27T05:17:46;6.60;99.90
14014;DHT22;49110;52.584;13.408;2024-01-27T05:18:47;6.60;99.90
14014;DHT22;49110;52.584;13.408;2024-01-27T05:19:49;6.60;99.90
14014;DHT22;49110;52.584;13.408;2024-01-27T05:20:49;6.60;99.90
14014;DHT22;49110;52.584;13.408;2024-01-27T05:21:50;6.50;99.90
14014;DHT22;49110;52.584;13.408;2024-01-27T05:22:50;6.60;99.90
14014;DHT22;49110;52.584;13.408;2024-01-27T05:23:50;6.60;99.90
14014;DHT22;49110;52.584;13.408;2024-01-27T05:24:51;6.60;99.90
14014;DHT22;49110;52.584;13.408;2024-01-27T05:25:51;6.60;99.90
14014;DHT22;49110;52.584;13.408;2024-01-27T05:26:52;6.60;99.90
14014;DHT22;49110;52.584;13.408;2024-01-27T05:27:52;6.50;99.90
14014;DHT22;49110;52.584;13.408;2024-01-27T05:28:53;6.60;99.90
14014;DHT22;49110;52.584;13.408;2024-01-27T05:29:53;6.60;99.90
14014;DHT22;49110;52.584;13.408;2024-01-27T05:30:54;6.60;99.90
14014;DHT22;49110;52.584;13.408;2024-01-27T05:31:54;6.50;99.90
14014;DHT22;49110;52.584;13.408;2024-01-27T05:32:55;6.50;99.90
14014;DHT22;49110;52.584;13.408;2024-01-27T05:33:55;6.50;99.90
14014;DHT22;49110;52.584;13.408;2024-01-27T05:34:56;6.40;99.90
14014;DHT22;49110;52.584;13.408;2024-01-27T05:35:56;6.40;99.90
14014;DHT22;49110;52.584;13.408;2024-01-27T05:36:57;6.40;99.90
14014;DHT22;49110;52.584;13.408;2024-01-27T05:37:57;6.50;99.90
14014;DHT22;49110;52.584;13.408;2024-01-27T05:38:58;6.50;99.90
14014;DHT22;49110;52.584;13.408;2024-01-27T05:39:58;6.50;99.90
14014;DHT22;49110;52.584;13.408;2024-01-27T05:41:02;6.50;99.90
14014;DHT22;49110;52.584;13.408;2024-01-27T05:42:03;6.60;99.90
14014;DHT22;49110;52.584;13.408;2024-01-27T05:43:03;6.60;99.90
14014;DHT22;49110;52.584;13.408;2024-01-27T05:44:04;6.60;99.90
14014;DHT22;49110;52.584;13.408;2024-01-27T05:45:05;6.60;99.90
14014;DHT22;49110;52.584;13.408;2024-01-27T05:46:05;6.60;99.90
14014;DHT22;49110;52.584;13.408;2024-01-27T05:47:07;6.60;99.90
14014;DHT22;49110;52.584;13.408;2024-01-27T05:48:07;6.60;99.90
14014;DHT22;49110;52.584;13.408;2024-01-27T05:49:08;6.60;99.90
14014;DHT22;49110;52.584;13.408;2024-01-27T05:50:08;6.60;99.90
14014;DHT22;49110;52.584;13.408;2024-01-27T05:51:09;6.60;99.90
14014;DHT22;49110;52.584;13.408;2024-01-27T05:52:10;6.60;99.90
14014;DHT22;49110;52.584;13.408;2024-01-27T05:53:10;6.70;99.90
14014;DHT22;49110;52.584;13.408;2024-01-27T05:54:10;6.60;99.90
14014;DHT22;49110;52.584;13.408;2024-01-27T05:55:15;6.60;99.90
14014;DHT22;49110;52.584;13.408;2024-01-27T05:56:17;6.60;99.90
14014;DHT22;49110;52.584;13.408;2024-01-27T05:57:23;6.70;99.90
14014;DHT22;49110;52.584;13.408;2024-01-27T05:58:23;6.80;99.90
14014;DHT22;49110;52.584;13.408;2024-01-27T05:59:24;6.80;99.90
14014;DHT22;49110;52.584;13.408;2024-01-27T06:00:24;6.80;99.90
14014;DHT22;49110;52.584;13.408;2024-01-27T06:01:25;6.80;99.90
14014;DHT22;49110;52.584;13.408;2024-01-27T06:02:25;6.80;99.90
14014;DHT22;49110;52.584;13.408;2024-01-27T06:03:25;6.90;99.90
14014;DHT22;49110;52.584;13.408;2024-01-27T06:04:26;6.90;99.90
14014;DHT22;49110;52.584;13.408;2024-01-27T06:05:26;7.00;99.90
14014;DHT22;49110;52.584;13.408;2024-01-27T06:06:30;6.90;99.90
14014;DHT22;49110;52.584;13.408;2024-01-27T06:07:30;6.90;99.90
14014;DHT22;49110;52.584;13.408;2024-01-27T06:08:31;6.90;99.90
14014;DHT22;49110;52.584;13.408;2024-01-27T06:09:31;6.80;99.90
14014;DHT22;49110;52.584;13.408;2024-01-27T06:10:32;6.80;99.90
14014;DHT22;49110;52.584;13.408;2024-01-27T06:11:32;6.80;99.90
14014;DHT22;49110;52.584;13.408;2024-01-27T06:12:33;6.90;99.90
14014;DHT22;49110;52.584;13.408;2024-01-27T06:13:33;6.90;99.90
14014;DHT22;49110;52.584;13.408;2024-01-27T06:14:34;6.90;99.90
14014;DHT22;49110;52.584;13.408;2024-01-27T06:15:35;6.90;99.90
14014;DHT22;49110;52.584;13.408;2024-01-27T06:16:35;6.90;99.90
14014;DHT22;49110;52.584;13.408;2024-01-27T06:17:36;6.90;99.90
14014;DHT22;49110;52.584;13.408;2024-01-27T06:18:37;6.90;99.90
14014;DHT22;49110;52.584;13.408;2024-01-27T06:19:37;6.90;99.90
14014;DHT22;49110;52.584;13.408;2024-01-27T06:20:38;6.90;99.90
14014;DHT22;49110;52.584;13.408;2024-01-27T06:21:40;6.90;99.90
14014;DHT22;49110;52.584;13.408;2024-01-27T06:22:41;6.90;99.90
14014;DHT22;49110;52.584;13.408;2024-01-27T06:23:41;6.90;99.90
14014;DHT22;49110;52.584;13.408;2024-01-27T06:24:45;6.90;99.90